sensor_id;sensor_type;location;lat;lon;timestamp;temperature;humidity
16066;DHT22;8137;48.952;8.970;2023-06-26T00:02:10;18.50;99.90
16066;DHT22;8137;48.952;8.970;2023-06-26T00:04:35;18.50;99.90
16066;DHT22;8137;48.952;8.970;2023-06-26T00:07:04;18.50;99.90
16066;DHT22;8137;48.952;8.970;2023-06-26T00:09:30;18.50;99.90
16066;DHT22;8137;48.952;8.970;2023-06-26T00:11:56;18.40;99.90
16066;DHT22;8137;48.952;8.970;2023-06-26T00:14:21;18.30;99.90
16066;DHT22;8137;48.952;8.970;2023-06-26T00:16:47;18.30;99.90
16066;DHT22;8137;48.952;8.970;2023-06-26T00:19:16;18.30;99.90
16066;DHT22;8137;48.952;8.970;2023-06-26T00:21:42;18.30;99.90
16066;DHT22;8137;48.952;8.970;2023-06-26T00:24:12;18.30;99.90
16066;DHT22;8137;48.952;8.970;2023-06-26T00:26:38;18.20;99.90
16066;DHT22;8137;48.952;8.970;2023-06-26T00:29:03;18.20;99.90
16066;DHT22;8137;48.952;8.970;2023-06-26T00:31:30;18.10;99.90
16066;DHT22;8137;48.952;8.970;2023-06-26T00:33:55;18.10;99.90
16066;DHT22;8137;48.952;8.970;2023-06-26T00:36:21;18.10;99.90
16066;DHT22;8137;48.952;8.970;2023-06-26T00:38:48;18.10;99.90
16066;DHT22;8137;48.952;8.970;2023-06-26T00:41:14;18.10;99.90
16066;DHT22;8137;48.952;8.970;2023-06-26T00:43:39;18.20;99.90
16066;DHT22;8137;48.952;8.970;2023-06-26T00:46:09;18.10;99.90
16066;DHT22;8137;48.952;8.970;2023-06-26T00:48:36;18.10;99.90
16066;DHT22;8137;48.952;8.970;2023-06-26T00:51:02;18.00;99.90
16066;DHT22;8137;48.952;8.970;2023-06-26T00:53:28;17.90;99.90
16066;DHT22;8137;48.952;8.970;2023-06-26T00:55:54;17.90;99.90
16066;DHT22;8137;48.952;8.970;2023-06-26T00:58:21;17.90;99.90
16066;DHT22;8137;48.952;8.970;2023-06-26T01:00:49;17.80;99.90
16066;DHT22;8137;48.952;8.970;2023-06-26T01:03:15;17.80;99.90
16066;DHT22;8137;48.952;8.970;2023-06-26T01:05:40;17.80;99.90
16066;DHT22;8137;48.952;8.970;2023-06-26T01:08:12;17.80;99.90
16066;DHT22;8137;48.952;8.970;2023-06-26T01:10:39;17.70;99.90
16066;DHT22;8137;48.952;8.970;2023-06-26T01:13:05;17.70;99.90
16066;DHT22;8137;48.952;8.970;2023-06-26T01:15:30;17.70;99.90
16066;DHT22;8137;48.952;8.970;2023-06-26T01:17:57;17.80;99.90
16066;DHT22;8137;48.952;8.970;2023-06-26T01:20:25;17.70;99.90
16066;DHT22;8137;48.952;8.970;2023-06-26T01:25:45;17.50;99.90
16066;DHT22;8137;48.952;8.970;2023-06-26T01:28:18;17.30;99.90
16066;DHT22;8137;48.952;8.970;2023-06-26T01:30:45;17.30;99.90
16066;DHT22;8137;48.952;8.970;2023-06-26T01:33:12;17.30;99.90
16066;DHT22;8137;48.952;8.970;2023-06-26T01:35:38;17.30;99.90
16066;DHT22;8137;48.952;8.970;2023-06-26T01:38:17;17.20;99.90
16066;DHT22;8137;48.952;8.970;2023-06-26T01:40:43;17.30;99.90
16066;DHT22;8137;48.952;8.970;2023-06-26T01:46:18;17.60;99.90
16066;DHT22;8137;48.952;8.970;2023-06-26T01:49:02;17.50;99.90
16066;DHT22;8137;48.952;8.970;2023-06-26T01:51:38;17.40;99.90
16066;DHT22;8137;48.952;8.970;2023-06-26T01:54:09;17.30;99.90
16066;DHT22;8137;48.952;8.970;2023-06-26T01:56:37;17.10;99.90
16066;DHT22;8137;48.952;8.970;2023-06-26T01:59:04;17.10;99.90
16066;DHT22;8137;48.952;8.970;2023-06-26T02:01:31;17.00;99.90
16066;DHT22;8137;48.952;8.970;2023-06-26T02:03:59;17.10;99.90
16066;DHT22;8137;48.952;8.970;2023-06-26T02:06:24;17.00;99.90
16066;DHT22;8137;48.952;8.970;2023-06-26T02:08:50;16.90;99.90
16066;DHT22;8137;48.952;8.970;2023-06-26T02:11:16;16.80;99.90
16066;DHT22;8137;48.952;8.970;2023-06-26T02:13:41;16.70;99.90
16066;DHT22;8137;48.952;8.970;2023-06-26T02:16:07;16.60;99.90
16066;DHT22;8137;48.952;8.970;2023-06-26T02:18:32;16.70;99.90
16066;DHT22;8137;48.952;8.970;2023-06-26T02:20:58;16.80;99.90
16066;DHT22;8137;48.952;8.970;2023-06-26T02:23:24;16.90;99.90
16066;DHT22;8137;48.952;8.970;2023-06-26T02:25:49;16.90;99.90
16066;DHT22;8137;48.952;8.970;2023-06-26T02:28:15;16.80;99.90
16066;DHT22;8137;48.952;8.970;2023-06-26T02:30:40;16.70;99.90
16066;DHT22;8137;48.952;8.970;2023-06-26T02:33:06;16.70;99.90
16066;DHT22;8137;48.952;8.970;2023-06-26T02:35:31;16.60;99.90
16066;DHT22;8137;48.952;8.970;2023-06-26T02:37:58;16.60;99.90
16066;DHT22;8137;48.952;8.970;2023-06-26T02:40:23;16.60;99.90
16066;DHT22;8137;48.952;8.970;2023-06-26T02:42:49;16.70;99.90
16066;DHT22;8137;48.952;8.970;2023-06-26T02:45:14;16.70;99.90
16066;DHT22;8137;48.952;8.970;2023-06-26T02:47:40;16.50;99.90
16066;DHT22;8137;48.952;8.970;2023-06-26T02:50:07;16.50;99.90
16066;DHT22;8137;48.952;8.970;2023-06-26T02:52:32;16.40;99.90
16066;DHT22;8137;48.952;8.970;2023-06-26T02:54:58;16.30;99.90
16066;DHT22;8137;48.952;8.970;2023-06-26T02:57:23;16.20;99.90
16066;DHT22;8137;48.952;8.970;2023-06-26T02:59:49;16.20;99.90
16066;DHT22;8137;48.952;8.970;2023-06-26T03:02:14;16.20;99.90
16066;DHT22;8137;48.952;8.970;2023-06-26T03:04:40;16.20;99.90
16066;DHT22;8137;48.952;8.970;2023-06-26T03:07:05;16.20;99.90
16066;DHT22;8137;48.952;8.970;2023-06-26T03:09:31;16.20;99.90
16066;DHT22;8137;48.952;8.970;2023-06-26T03:11:57;16.20;99.90
16066;DHT22;8137;48.952;8.970;2023-06-26T03:14:22;16.20;99.90
16066;DHT22;8137;48.952;8.970;2023-06-26T03:16:48;16.10;99.90
16066;DHT22;8137;48.952;8.970;2023-06-26T03:19:14;16.10;99.90
16066;DHT22;8137;48.952;8.970;2023-06-26T03:21:40;16.10;99.90
16066;DHT22;8137;48.952;8.970;2023-06-26T03:24:06;16.10;99.90
16066;DHT22;8137;48.952;8.970;2023-06-26T03:26:31;16.10;99.90
16066;DHT22;8137;48.952;8.970;2023-06-26T03:28:57;16.10;99.90
16066;DHT22;8137;48.952;8.970;2023-06-26T03:31:23;16.20;99.90
16066;DHT22;8137;48.952;8.970;2023-06-26T03:33:49;16.20;99.90
16066;DHT22;8137;48.952;8.970;2023-06-26T03:36:14;16.30;99.90
16066;DHT22;8137;48.952;8.970;2023-06-26T03:38:40;16.30;99.90
16066;DHT22;8137;48.952;8.970;2023-06-26T03:41:06;16.30;99.90
16066;DHT22;8137;48.952;8.970;2023-06-26T03:43:32;16.40;99.90
16066;DHT22;8137;48.952;8.970;2023-06-26T03:45:57;16.40;99.90
16066;DHT22;8137;48.952;8.970;2023-06-26T03:48:23;16.40;99.90
16066;DHT22;8137;48.952;8.970;2023-06-26T03:50:48;16.50;99.90
16066;DHT22;8137;48.952;8.970;2023-06-26T03:53:14;16.50;99.90
16066;DHT22;8137;48.952;8.970;2023-06-26T03:55:40;16.50;99.90
16066;DHT22;8137;48.952;8.970;2023-06-26T03:58:05;16.50;99.90
16066;DHT22;8137;48.952;8.970;2023-06-26T04:00:31;16.50;99.90
16066;DHT22;8137;48.952;8.970;2023-06-26T04:02:56;16.40;99.90
16066;DHT22;8137;48.952;8.970;2023-06-26T04:05:23;16.40;99.90
16066;DHT22;8137;48.952;8.970;2023-06-26T04:07:52;16.50;99.90
16066;DHT22;8137;48.952;8.970;2023-06-26T04:10:18;16.60;99.90
16066;DHT22;8137;48.952;8.970;2023-06-26T04:12:45;16.70;99.90
16066;DHT22;8137;48.952;8.970;2023-06-26T04:15:10;16.80;99.90
16066;DHT22;8137;48.952;8.970;2023-06-26T04:17:36;16.90;99.90
16066;DHT22;8137;48.952;8.970;2023-06-26T04:20:02;17.00;99.90
16066;DHT22;8137;48.952;8.970;2023-06-26T04:22:31;17.20;99.90
16066;DHT22;8137;48.952;8.970;2023-06-26T04:24:57;17.30;99.90
16066;DHT22;8137;48.952;8.970;2023-06-26T04:27:23;17.40;99.90
16066;DHT22;8137;48.952;8.970;2023-06-26T04:29:48;17.40;99.90
16066;DHT22;8137;48.952;8.970;2023-06-26T04:32:14;17.50;99.90
16066;DHT22;8137;48.952;8.970;2023-06-26T04:34:39;17.50;99.90
16066;DHT22;8137;48.952;8.970;2023-06-26T04:37:08;17.50;99.90
16066;DHT22;8137;48.952;8.970;2023-06-26T04:39:35;17.70;99.90
16066;DHT22;8137;48.952;8.970;2023-06-26T04:42:03;17.90;99.90
16066;DHT22;8137;48.952;8.970;2023-06-26T04:44:28;18.00;99.90
16066;DHT22;8137;48.952;8.970;2023-06-26T04:46:54;18.00;99.90
16066;DHT22;8137;48.952;8.970;2023-06-26T04:49:19;18.10;99.90
16066;DHT22;8137;48.952;8.970;2023-06-26T04:51:45;18.20;99.90
16066;DHT22;8137;48.952;8.970;2023-06-26T04:54:11;18.30;99.90
16066;DHT22;8137;48.952;8.970;2023-06-26T04:56:37;18.40;99.90
16066;DHT22;8137;48.952;8.970;2023-06-26T04:59:05;18.60;99.90
16066;DHT22;8137;48.952;8.970;2023-06-26T05:01:31;18.70;99.90
16066;DHT22;8137;48.952;8.970;2023-06-26T05:04:00;18.70;99.90
16066;DHT22;8137;48.952;8.970;2023-06-26T05:06:26;18.70;99.90
16066;DHT22;8137;48.952;8.970;2023-06-26T05:08:52;18.80;99.90
16066;DHT22;8137;48.952;8.970;2023-06-26T05:11:17;18.90;99.90
16066;DHT22;8137;48.952;8.970;2023-06-26T05:13:43;18.90;99.90
16066;DHT22;8137;48.952;8.970;2023-06-26T05:16:09;19.00;99.90
16066;DHT22;8137;48.952;8.970;2023-06-26T05:18:35;19.10;99.90
16066;DHT22;8137;48.952;8.970;2023-06-26T05:21:02;19.20;99.90
16066;DHT22;8137;48.952;8.970;2023-06-26T05:23:31;19.30;99.90
16066;DHT22;8137;48.952;8.970;2023-06-26T05:25:57;19.50;99.90
16066;DHT22;8137;48.952;8.970;2023-06-26T05:28:24;19.60;99.90
16066;DHT22;8137;48.952;8.970;2023-06-26T05:30:51;19.70;99.90
16066;DHT22;8137;48.952;8.970;2023-06-26T05:33:18;19.80;99.90
16066;DHT22;8137;48.952;8.970;2023-06-26T05:35:45;19.90;99.90
16066;DHT22;8137;48.952;8.970;2023-06-26T05:38:12;20.00;99.90
16066;DHT22;8137;48.952;8.970;2023-06-26T05:40:39;20.10;99.90
16066;DHT22;8137;48.952;8.970;2023-06-26T05:43:06;20.20;99.90
16066;DHT22;8137;48.952;8.970;2023-06-26T05:45:32;20.30;99.90
16066;DHT22;8137;48.952;8.970;2023-06-26T05:47:57;20.30;99.90
16066;DHT22;8137;48.952;8.970;2023-06-26T05:50:23;20.30;99.90
16066;DHT22;8137;48.952;8.970;2023-06-26T05:52:50;20.40;99.90
16066;DHT22;8137;48.952;8.970;2023-06-26T05:55:16;20.50;99.90
16066;DHT22;8137;48.952;8.970;2023-06-26T05:57:41;20.70;99.90
16066;DHT22;8137;48.952;8.970;2023-06-26T06:00:08;20.90;99.90
16066;DHT22;8137;48.952;8.970;2023-06-26T06:02:36;21.00;99.90
16066;DHT22;8137;48.952;8.970;2023-06-26T06:05:03;21.10;99.90
16066;DHT22;8137;48.952;8.970;2023-06-26T06:07:28;21.10;99.90
16066;DHT22;8137;48.952;8.970;2023-06-26T06:09:54;21.20;99.90
16066;DHT22;8137;48.952;8.970;2023-06-26T06:12:19;21.20;99.90
16066;DHT22;8137;48.952;8.970;2023-06-26T06:14:45;21.20;99.90
16066;DHT22;8137;48.952;8.970;2023-06-26T06:17:10;21.20;99.90
16066;DHT22;8137;48.952;8.970;2023-06-26T06:19:36;21.30;99.90
16066;DHT22;8137;48.952;8.970;2023-06-26T06:22:01;21.30;99.90
16066;DHT22;8137;48.952;8.970;2023-06-26T06:24:27;21.40;99.90
16066;DHT22;8137;48.952;8.970;2023-06-26T06:26:53;21.50;99.90
16066;DHT22;8137;48.952;8.970;2023-06-26T06:29:18;21.60;99.90
16066;DHT22;8137;48.952;8.970;2023-06-26T06:31:45;21.80;99.90
16066;DHT22;8137;48.952;8.970;2023-06-26T06:34:10;22.00;99.90
16066;DHT22;8137;48.952;8.970;2023-06-26T06:36:37;22.20;99.90
16066;DHT22;8137;48.952;8.970;2023-06-26T06:39:02;22.30;99.90
16066;DHT22;8137;48.952;8.970;2023-06-26T06:41:28;22.50;99.90
16066;DHT22;8137;48.952;8.970;2023-06-26T06:43:54;22.60;99.90
16066;DHT22;8137;48.952;8.970;2023-06-26T06:46:20;22.80;99.90
16066;DHT22;8137;48.952;8.970;2023-06-26T06:48:45;23.00;99.90
16066;DHT22;8137;48.952;8.970;2023-06-26T06:51:12;23.20;99.90
16066;DHT22;8137;48.952;8.970;2023-06-26T06:53:38;23.30;99.90
16066;DHT22;8137;48.952;8.970;2023-06-26T06:56:03;23.40;99.90
16066;DHT22;8137;48.952;8.970;2023-06-26T06:58:29;23.40;99.90
16066;DHT22;8137;48.952;8.970;2023-06-26T07:00:59;23.50;99.90
16066;DHT22;8137;48.952;8.970;2023-06-26T07:03:24;23.70;99.90
16066;DHT22;8137;48.952;8.970;2023-06-26T07:05:50;23.90;99.90
16066;DHT22;8137;48.952;8.970;2023-06-26T07:08:16;24.10;99.90
16066;DHT22;8137;48.952;8.970;2023-06-26T07:10:41;24.30;99.90
16066;DHT22;8137;48.952;8.970;2023-06-26T07:13:07;24.50;99.90
16066;DHT22;8137;48.952;8.970;2023-06-26T07:15:33;24.60;99.90
16066;DHT22;8137;48.952;8.970;2023-06-26T07:17:58;24.70;99.90
16066;DHT22;8137;48.952;8.970;2023-06-26T07:20:24;24.80;99.90
16066;DHT22;8137;48.952;8.970;2023-06-26T07:22:50;24.90;99.90
16066;DHT22;8137;48.952;8.970;2023-06-26T07:25:16;25.00;99.90
16066;DHT22;8137;48.952;8.970;2023-06-26T07:27:42;25.00;99.90
16066;DHT22;8137;48.952;8.970;2023-06-26T07:30:08;25.20;99.90
16066;DHT22;8137;48.952;8.970;2023-06-26T07:32:35;25.50;99.90
16066;DHT22;8137;48.952;8.970;2023-06-26T07:39:00;25.70;99.90
16066;DHT22;8137;48.952;8.970;2023-06-26T07:41:25;26.00;99.90
16066;DHT22;8137;48.952;8.970;2023-06-26T07:43:51;26.10;99.90
16066;DHT22;8137;48.952;8.970;2023-06-26T07:46:16;26.40;99.90
16066;DHT22;8137;48.952;8.970;2023-06-26T07:48:42;26.60;99.90
16066;DHT22;8137;48.952;8.970;2023-06-26T07:51:07;26.80;99.90
16066;DHT22;8137;48.952;8.970;2023-06-26T07:53:33;27.10;99.90
16066;DHT22;8137;48.952;8.970;2023-06-26T07:55:59;27.30;99.90
16066;DHT22;8137;48.952;8.970;2023-06-26T07:58:24;27.50;99.90
16066;DHT22;8137;48.952;8.970;2023-06-26T08:00:51;27.60;99.90
16066;DHT22;8137;48.952;8.970;2023-06-26T08:11:19;27.60;99.40
16066;DHT22;8137;48.952;8.970;2023-06-26T08:39:30;29.10;74.20
16066;DHT22;8137;48.952;8.970;2023-06-26T08:41:55;29.20;75.10
16066;DHT22;8137;48.952;8.970;2023-06-26T08:44:21;29.40;71.40
16066;DHT22;8137;48.952;8.970;2023-06-26T08:46:51;29.30;66.90
16066;DHT22;8137;48.952;8.970;2023-06-26T08:49:34;29.20;62.80
16066;DHT22;8137;48.952;8.970;2023-06-26T08:52:10;29.30;63.40
16066;DHT22;8137;48.952;8.970;2023-06-26T08:54:43;29.30;63.90
16066;DHT22;8137;48.952;8.970;2023-06-26T08:57:10;29.30;58.80
16066;DHT22;8137;48.952;8.970;2023-06-26T08:59:36;29.30;56.10
16066;DHT22;8137;48.952;8.970;2023-06-26T09:02:02;29.30;56.00
16066;DHT22;8137;48.952;8.970;2023-06-26T09:04:28;29.50;55.30
16066;DHT22;8137;48.952;8.970;2023-06-26T09:06:54;29.40;54.20
16066;DHT22;8137;48.952;8.970;2023-06-26T09:09:19;29.40;53.50
16066;DHT22;8137;48.952;8.970;2023-06-26T09:11:45;29.50;53.70
16066;DHT22;8137;48.952;8.970;2023-06-26T09:14:12;29.50;52.40
16066;DHT22;8137;48.952;8.970;2023-06-26T09:16:42;29.40;50.70
16066;DHT22;8137;48.952;8.970;2023-06-26T09:19:11;29.20;52.70
16066;DHT22;8137;48.952;8.970;2023-06-26T09:21:41;29.20;52.30
16066;DHT22;8137;48.952;8.970;2023-06-26T09:24:08;29.30;54.60
16066;DHT22;8137;48.952;8.970;2023-06-26T09:26:37;29.30;53.40
16066;DHT22;8137;48.952;8.970;2023-06-26T09:29:04;29.30;52.30
16066;DHT22;8137;48.952;8.970;2023-06-26T09:31:36;29.10;54.50
16066;DHT22;8137;48.952;8.970;2023-06-26T09:34:02;29.00;54.50
16066;DHT22;8137;48.952;8.970;2023-06-26T09:36:31;28.90;53.60
16066;DHT22;8137;48.952;8.970;2023-06-26T09:39:04;29.00;56.70
16066;DHT22;8137;48.952;8.970;2023-06-26T09:41:34;29.30;55.00
16066;DHT22;8137;48.952;8.970;2023-06-26T09:44:01;29.20;51.50
16066;DHT22;8137;48.952;8.970;2023-06-26T09:46:28;29.20;52.90
16066;DHT22;8137;48.952;8.970;2023-06-26T09:51:24;29.50;51.20
16066;DHT22;8137;48.952;8.970;2023-06-26T09:53:49;29.80;51.60
16066;DHT22;8137;48.952;8.970;2023-06-26T09:56:16;29.80;51.90
16066;DHT22;8137;48.952;8.970;2023-06-26T09:58:43;29.70;51.10
16066;DHT22;8137;48.952;8.970;2023-06-26T10:01:09;29.80;49.20
16066;DHT22;8137;48.952;8.970;2023-06-26T10:03:35;29.30;45.80
16066;DHT22;8137;48.952;8.970;2023-06-26T10:06:02;29.10;46.40
16066;DHT22;8137;48.952;8.970;2023-06-26T10:08:28;28.80;46.10
16066;DHT22;8137;48.952;8.970;2023-06-26T10:10:56;28.80;47.70
16066;DHT22;8137;48.952;8.970;2023-06-26T10:13:26;28.90;48.30
16066;DHT22;8137;48.952;8.970;2023-06-26T10:15:53;29.00;50.40
16066;DHT22;8137;48.952;8.970;2023-06-26T10:18:22;29.00;51.10
16066;DHT22;8137;48.952;8.970;2023-06-26T10:20:50;28.70;53.20
16066;DHT22;8137;48.952;8.970;2023-06-26T10:23:19;28.70;56.20
16066;DHT22;8137;48.952;8.970;2023-06-26T10:25:46;28.40;56.50
16066;DHT22;8137;48.952;8.970;2023-06-26T10:28:15;28.40;59.40
16066;DHT22;8137;48.952;8.970;2023-06-26T10:30:43;28.70;65.00
16066;DHT22;8137;48.952;8.970;2023-06-26T10:33:10;29.30;66.20
16066;DHT22;8137;48.952;8.970;2023-06-26T10:35:43;29.50;60.60
16066;DHT22;8137;48.952;8.970;2023-06-26T10:38:10;29.60;60.30
16066;DHT22;8137;48.952;8.970;2023-06-26T10:40:46;29.50;59.30
16066;DHT22;8137;48.952;8.970;2023-06-26T10:43:14;29.40;61.60
16066;DHT22;8137;48.952;8.970;2023-06-26T10:45:48;29.20;64.20
16066;DHT22;8137;48.952;8.970;2023-06-26T10:48:17;29.30;66.30
16066;DHT22;8137;48.952;8.970;2023-06-26T10:50:46;29.50;65.70
16066;DHT22;8137;48.952;8.970;2023-06-26T10:55:43;29.30;65.10
16066;DHT22;8137;48.952;8.970;2023-06-26T10:58:43;29.00;65.00
16066;DHT22;8137;48.952;8.970;2023-06-26T11:03:39;28.60;71.70
16066;DHT22;8137;48.952;8.970;2023-06-26T11:06:21;28.50;76.40
16066;DHT22;8137;48.952;8.970;2023-06-26T11:09:08;28.20;78.80
16066;DHT22;8137;48.952;8.970;2023-06-26T11:14:18;28.60;79.70
16066;DHT22;8137;48.952;8.970;2023-06-26T11:16:43;28.80;79.80
16066;DHT22;8137;48.952;8.970;2023-06-26T11:19:10;29.10;77.40
16066;DHT22;8137;48.952;8.970;2023-06-26T11:21:38;29.00;77.20
16066;DHT22;8137;48.952;8.970;2023-06-26T11:24:06;29.00;75.50
16066;DHT22;8137;48.952;8.970;2023-06-26T11:26:41;29.00;77.40
16066;DHT22;8137;48.952;8.970;2023-06-26T11:29:07;29.10;77.40
16066;DHT22;8137;48.952;8.970;2023-06-26T11:31:35;29.00;77.00
16066;DHT22;8137;48.952;8.970;2023-06-26T11:34:05;29.10;79.30
16066;DHT22;8137;48.952;8.970;2023-06-26T11:36:33;29.10;80.40
16066;DHT22;8137;48.952;8.970;2023-06-26T11:39:03;29.10;80.10
16066;DHT22;8137;48.952;8.970;2023-06-26T11:41:32;29.10;81.30
16066;DHT22;8137;48.952;8.970;2023-06-26T11:44:05;29.20;79.70
16066;DHT22;8137;48.952;8.970;2023-06-26T11:46:32;29.40;81.60
16066;DHT22;8137;48.952;8.970;2023-06-26T11:48:59;29.40;78.50
16066;DHT22;8137;48.952;8.970;2023-06-26T11:51:27;29.30;81.90
16066;DHT22;8137;48.952;8.970;2023-06-26T11:53:53;29.50;82.10
16066;DHT22;8137;48.952;8.970;2023-06-26T11:56:19;29.60;81.30
16066;DHT22;8137;48.952;8.970;2023-06-26T12:01:34;29.20;82.40
16066;DHT22;8137;48.952;8.970;2023-06-26T12:04:01;29.20;83.80
16066;DHT22;8137;48.952;8.970;2023-06-26T12:06:29;29.00;83.90
16066;DHT22;8137;48.952;8.970;2023-06-26T12:08:56;29.00;80.60
16066;DHT22;8137;48.952;8.970;2023-06-26T12:11:23;29.10;84.90
16066;DHT22;8137;48.952;8.970;2023-06-26T12:13:50;29.30;81.80
16066;DHT22;8137;48.952;8.970;2023-06-26T12:16:16;29.50;85.30
16066;DHT22;8137;48.952;8.970;2023-06-26T12:18:42;29.40;79.20
16066;DHT22;8137;48.952;8.970;2023-06-26T12:21:07;29.60;81.10
16066;DHT22;8137;48.952;8.970;2023-06-26T12:23:34;29.60;77.90
16066;DHT22;8137;48.952;8.970;2023-06-26T12:26:20;29.80;74.10
16066;DHT22;8137;48.952;8.970;2023-06-26T12:28:46;29.50;71.10
16066;DHT22;8137;48.952;8.970;2023-06-26T12:31:14;29.50;73.50
16066;DHT22;8137;48.952;8.970;2023-06-26T12:33:39;29.70;75.60
16066;DHT22;8137;48.952;8.970;2023-06-26T12:36:13;29.70;70.00
16066;DHT22;8137;48.952;8.970;2023-06-26T12:38:39;30.00;68.20
16066;DHT22;8137;48.952;8.970;2023-06-26T12:41:05;29.90;62.50
16066;DHT22;8137;48.952;8.970;2023-06-26T12:43:38;29.90;62.00
16066;DHT22;8137;48.952;8.970;2023-06-26T12:46:04;29.90;60.20
16066;DHT22;8137;48.952;8.970;2023-06-26T12:48:42;29.90;59.40
16066;DHT22;8137;48.952;8.970;2023-06-26T12:51:17;29.90;57.70
16066;DHT22;8137;48.952;8.970;2023-06-26T12:53:43;30.00;56.40
16066;DHT22;8137;48.952;8.970;2023-06-26T12:56:10;30.00;55.10
16066;DHT22;8137;48.952;8.970;2023-06-26T12:58:39;29.90;52.20
16066;DHT22;8137;48.952;8.970;2023-06-26T13:01:06;30.00;51.10
16066;DHT22;8137;48.952;8.970;2023-06-26T13:03:45;29.80;48.40
16066;DHT22;8137;48.952;8.970;2023-06-26T13:06:11;29.80;47.30
16066;DHT22;8137;48.952;8.970;2023-06-26T13:08:37;29.70;41.90
16066;DHT22;8137;48.952;8.970;2023-06-26T13:11:03;29.80;43.80
16066;DHT22;8137;48.952;8.970;2023-06-26T13:13:28;29.80;42.70
16066;DHT22;8137;48.952;8.970;2023-06-26T13:15:54;30.00;43.00
16066;DHT22;8137;48.952;8.970;2023-06-26T13:18:22;30.00;38.60
16066;DHT22;8137;48.952;8.970;2023-06-26T13:20:47;30.10;36.00
16066;DHT22;8137;48.952;8.970;2023-06-26T13:23:13;30.00;37.60
16066;DHT22;8137;48.952;8.970;2023-06-26T13:25:39;30.10;36.50
16066;DHT22;8137;48.952;8.970;2023-06-26T13:28:04;30.20;34.30
16066;DHT22;8137;48.952;8.970;2023-06-26T13:30:30;29.90;32.00
16066;DHT22;8137;48.952;8.970;2023-06-26T13:32:56;29.80;28.80
16066;DHT22;8137;48.952;8.970;2023-06-26T13:35:21;29.80;29.60
16066;DHT22;8137;48.952;8.970;2023-06-26T13:37:47;29.80;29.90
16066;DHT22;8137;48.952;8.970;2023-06-26T13:40:13;29.80;30.00
16066;DHT22;8137;48.952;8.970;2023-06-26T13:42:38;29.90;29.90
16066;DHT22;8137;48.952;8.970;2023-06-26T13:45:05;30.10;29.90
16066;DHT22;8137;48.952;8.970;2023-06-26T13:47:31;30.30;30.40
16066;DHT22;8137;48.952;8.970;2023-06-26T13:49:56;30.20;29.00
16066;DHT22;8137;48.952;8.970;2023-06-26T13:52:22;30.00;29.30
16066;DHT22;8137;48.952;8.970;2023-06-26T13:54:47;29.90;28.90
16066;DHT22;8137;48.952;8.970;2023-06-26T13:57:13;29.80;28.70
16066;DHT22;8137;48.952;8.970;2023-06-26T13:59:39;29.90;29.60
16066;DHT22;8137;48.952;8.970;2023-06-26T14:02:05;30.10;29.70
16066;DHT22;8137;48.952;8.970;2023-06-26T14:04:32;30.10;28.30
16066;DHT22;8137;48.952;8.970;2023-06-26T14:06:57;29.90;29.00
16066;DHT22;8137;48.952;8.970;2023-06-26T14:09:23;30.00;27.30
16066;DHT22;8137;48.952;8.970;2023-06-26T14:11:48;30.20;29.30
16066;DHT22;8137;48.952;8.970;2023-06-26T14:14:14;30.10;28.80
16066;DHT22;8137;48.952;8.970;2023-06-26T14:16:40;30.20;27.40
16066;DHT22;8137;48.952;8.970;2023-06-26T14:19:05;29.80;26.30
16066;DHT22;8137;48.952;8.970;2023-06-26T14:21:31;29.60;28.30
16066;DHT22;8137;48.952;8.970;2023-06-26T14:23:58;29.10;28.20
16066;DHT22;8137;48.952;8.970;2023-06-26T14:26:24;29.10;30.00
16066;DHT22;8137;48.952;8.970;2023-06-26T14:28:50;29.10;28.90
16066;DHT22;8137;48.952;8.970;2023-06-26T14:31:15;29.20;29.10
16066;DHT22;8137;48.952;8.970;2023-06-26T14:33:41;29.20;28.30
16066;DHT22;8137;48.952;8.970;2023-06-26T14:36:06;29.30;29.00
16066;DHT22;8137;48.952;8.970;2023-06-26T14:38:32;29.50;27.30
16066;DHT22;8137;48.952;8.970;2023-06-26T14:40:58;29.80;28.10
16066;DHT22;8137;48.952;8.970;2023-06-26T14:43:23;30.00;25.60
16066;DHT22;8137;48.952;8.970;2023-06-26T14:45:49;30.00;25.60
16066;DHT22;8137;48.952;8.970;2023-06-26T14:48:15;29.80;25.00
16066;DHT22;8137;48.952;8.970;2023-06-26T14:50:40;29.90;25.30
16066;DHT22;8137;48.952;8.970;2023-06-26T14:53:06;30.00;26.70
16066;DHT22;8137;48.952;8.970;2023-06-26T14:55:32;30.20;25.00
16066;DHT22;8137;48.952;8.970;2023-06-26T14:57:57;29.90;24.80
16066;DHT22;8137;48.952;8.970;2023-06-26T15:00:23;29.70;24.50
16066;DHT22;8137;48.952;8.970;2023-06-26T15:02:49;29.60;25.40
16066;DHT22;8137;48.952;8.970;2023-06-26T15:05:18;29.40;25.80
16066;DHT22;8137;48.952;8.970;2023-06-26T15:07:44;29.50;27.00
16066;DHT22;8137;48.952;8.970;2023-06-26T15:10:09;29.40;26.40
16066;DHT22;8137;48.952;8.970;2023-06-26T15:12:35;29.00;25.50
16066;DHT22;8137;48.952;8.970;2023-06-26T15:15:01;28.80;26.30
16066;DHT22;8137;48.952;8.970;2023-06-26T15:17:26;28.60;27.90
16066;DHT22;8137;48.952;8.970;2023-06-26T15:19:52;28.80;28.10
16066;DHT22;8137;48.952;8.970;2023-06-26T15:22:18;28.90;27.20
16066;DHT22;8137;48.952;8.970;2023-06-26T15:24:44;28.80;26.20
16066;DHT22;8137;48.952;8.970;2023-06-26T15:27:09;28.90;27.50
16066;DHT22;8137;48.952;8.970;2023-06-26T15:29:35;28.80;27.30
16066;DHT22;8137;48.952;8.970;2023-06-26T15:32:01;28.80;27.50
16066;DHT22;8137;48.952;8.970;2023-06-26T15:34:27;28.70;28.10
16066;DHT22;8137;48.952;8.970;2023-06-26T15:36:52;28.80;27.30
16066;DHT22;8137;48.952;8.970;2023-06-26T15:39:18;28.50;26.30
16066;DHT22;8137;48.952;8.970;2023-06-26T15:41:44;28.40;26.00
16066;DHT22;8137;48.952;8.970;2023-06-26T15:44:10;28.40;26.10
16066;DHT22;8137;48.952;8.970;2023-06-26T15:46:36;28.20;25.40
16066;DHT22;8137;48.952;8.970;2023-06-26T15:49:02;28.00;24.60
16066;DHT22;8137;48.952;8.970;2023-06-26T15:51:27;27.80;23.80
16066;DHT22;8137;48.952;8.970;2023-06-26T15:53:53;27.80;24.50
16066;DHT22;8137;48.952;8.970;2023-06-26T15:56:19;28.00;23.00
16066;DHT22;8137;48.952;8.970;2023-06-26T15:58:45;28.10;22.50
16066;DHT22;8137;48.952;8.970;2023-06-26T16:01:12;28.20;22.40
16066;DHT22;8137;48.952;8.970;2023-06-26T16:03:39;28.10;22.50
16066;DHT22;8137;48.952;8.970;2023-06-26T16:06:05;28.20;22.20
16066;DHT22;8137;48.952;8.970;2023-06-26T16:08:31;28.10;22.30
16066;DHT22;8137;48.952;8.970;2023-06-26T16:10:57;28.10;20.40
16066;DHT22;8137;48.952;8.970;2023-06-26T16:13:22;28.30;19.90
16066;DHT22;8137;48.952;8.970;2023-06-26T16:15:48;28.40;18.70
16066;DHT22;8137;48.952;8.970;2023-06-26T16:18:14;28.40;17.10
16066;DHT22;8137;48.952;8.970;2023-06-26T16:20:41;28.50;16.20
16066;DHT22;8137;48.952;8.970;2023-06-26T16:23:06;28.40;17.00
16066;DHT22;8137;48.952;8.970;2023-06-26T16:25:32;28.50;14.60
16066;DHT22;8137;48.952;8.970;2023-06-26T16:27:58;28.30;13.40
16066;DHT22;8137;48.952;8.970;2023-06-26T16:30:23;28.30;12.50
16066;DHT22;8137;48.952;8.970;2023-06-26T16:32:49;28.20;10.10
16066;DHT22;8137;48.952;8.970;2023-06-26T16:35:15;28.20;9.80
16066;DHT22;8137;48.952;8.970;2023-06-26T16:37:41;28.10;8.30
16066;DHT22;8137;48.952;8.970;2023-06-26T16:40:07;27.80;8.40
16066;DHT22;8137;48.952;8.970;2023-06-26T16:42:32;27.80;7.90